KRVS/RVS METAR and TAF weather

Enter ICAO airport designator
Station Type Date Time Source
KRVS METAR 2019/06/19 00:53 UTC NOAA

KRVS 190053Z 16008KT 10SM CLR 30/20 A2980 RMK AO2 SLP092 T03000200


Station Type Date Time Source
KRVS Decoded METAR 2019/06/19 00:53 UTC NOAA

TULSA JONES JR. AIRPORT, OK, United States (KRVS) 36-03N 095-59W 200M
Jun 18, 2019 - 08:53 PM EDT / 2019.06.19 0053 UTC
Wind: from the SSE (160 degrees) at 9 MPH (8 KT):0
Visibility: 10 mile(s):0
Sky conditions: clear
Temperature: 86.0 F (30.0 C)
Dew Point: 68.0 F (20.0 C)
Relative Humidity: 55%
Pressure (altimeter): 29.8 in. Hg (1009 hPa)
ob: KRVS 190053Z 16008KT 10SM CLR 30/20 A2980 RMK AO2 SLP092 T03000200
cycle: 1

Station Type Date Time Source
KRVS TAF 2019/06/18 18:22 UTC NOAA

TAF KRVS 181720Z 1818/1918 11004KT P6SM SCT040 BKN250
FM190600 17005KT P6SM VCTS OVC050CB
TEMPO 1906/1910 VRB25G35KT 1SM +TSRA BKN030CB
FM191000 20006KT 5SM -RA BR OVC100
FM191300 30006KT P6SM OVC015

Example: see airport list